Terminal Aerodrome Forecast
Issued by NWS Jackson, MS

Home | Current Version | Previous Version | Text Only | Print | Product List | Glossary On
Versions: 1 2 3 4 5 6 7 8 9 10 11 12 13 14 15 16 17 18
000
FTUS44 KMEG 291503 AAA
TAFTUP
TAF AMD
KTUP 291503Z 2915/3012 18006KT P6SM OVC011
     FM291700 18008KT P6SM BKN015 OVC025
     FM291900 18008KT P6SM VCTS BKN035CB BKN250
     FM300100 18005KT P6SM BKN250
     FM300800 19005KT P6SM OVC006=

USA.gov is the U.S. government's official web portal to all federal, state and local government web resources and services.